createdAt,value
2022-10-19T00:02:00.083Z,8.79
2022-10-19T00:04:26.222Z,8.70
2022-10-19T00:06:52.354Z,8.50
2022-10-19T00:09:18.452Z,8.33
2022-10-19T00:11:44.562Z,8.43
2022-10-19T00:14:10.659Z,8.51
2022-10-19T00:16:36.756Z,8.59
2022-10-19T00:19:02.866Z,8.56
2022-10-19T00:21:28.956Z,8.50
2022-10-19T00:23:55.051Z,8.51
2022-10-19T00:26:21.186Z,8.38
2022-10-19T00:28:47.369Z,8.36
2022-10-19T00:31:13.512Z,8.29
2022-10-19T00:33:39.635Z,8.19
2022-10-19T00:36:05.734Z,8.32
2022-10-19T00:38:31.821Z,8.35
2022-10-19T00:40:57.953Z,8.38
2022-10-19T00:43:24.052Z,8.20
2022-10-19T00:45:50.163Z,8.23
2022-10-19T00:48:16.277Z,8.37
2022-10-19T00:50:42.367Z,8.16
2022-10-19T00:53:08.459Z,8.16
2022-10-19T00:55:34.613Z,8.26
2022-10-19T00:58:00.713Z,8.29
2022-10-19T01:00:26.820Z,8.31
2022-10-19T01:02:52.946Z,8.15
2022-10-19T01:05:19.045Z,8.00
2022-10-19T01:07:45.140Z,7.82
2022-10-19T01:10:11.251Z,7.94
2022-10-19T01:12:37.355Z,7.92
2022-10-19T01:15:03.464Z,7.87
2022-10-19T01:17:29.607Z,7.84
2022-10-19T01:19:55.712Z,7.78
2022-10-19T01:22:21.844Z,7.71
2022-10-19T01:24:47.982Z,7.72
2022-10-19T01:27:14.105Z,7.68
2022-10-19T01:29:40.193Z,7.57
2022-10-19T01:32:06.327Z,7.69
2022-10-19T01:34:32.422Z,7.74
2022-10-19T01:36:58.527Z,7.68
2022-10-19T01:39:24.656Z,7.71
2022-10-19T01:41:50.773Z,7.68
2022-10-19T01:44:16.873Z,7.69
2022-10-19T01:46:43.004Z,7.52
2022-10-19T01:49:15.293Z,7.25
2022-10-19T01:51:41.511Z,7.32
2022-10-19T01:54:07.644Z,7.38
2022-10-19T01:56:33.728Z,7.12
2022-10-19T01:58:59.833Z,7.13
2022-10-19T02:01:25.941Z,7.23
2022-10-19T02:03:52.025Z,7.30
2022-10-19T02:06:18.122Z,7.36
2022-10-19T02:08:44.216Z,7.30
2022-10-19T02:11:10.309Z,7.08
2022-10-19T02:13:36.428Z,7.04
2022-10-19T02:16:02.605Z,7.12
2022-10-19T02:18:28.688Z,7.15
2022-10-19T02:20:54.782Z,7.19
2022-10-19T02:23:20.891Z,7.07
2022-10-19T02:25:46.982Z,6.81
2022-10-19T02:28:13.110Z,6.93
2022-10-19T02:30:39.263Z,6.99
2022-10-19T02:33:05.362Z,6.87
2022-10-19T02:35:31.473Z,7.13
2022-10-19T02:37:57.576Z,7.09
2022-10-19T02:40:23.662Z,7.13
2022-10-19T02:42:49.748Z,7.11
2022-10-19T02:45:15.858Z,6.94
2022-10-19T02:47:41.958Z,6.75
2022-10-19T02:50:08.074Z,6.58
2022-10-19T02:52:34.339Z,6.58
2022-10-19T02:55:00.437Z,6.64
2022-10-19T02:57:26.525Z,6.73
2022-10-19T02:59:52.653Z,6.73
2022-10-19T03:02:18.736Z,6.81
2022-10-19T03:04:44.893Z,6.80
2022-10-19T03:07:11.028Z,6.70
2022-10-19T03:09:37.132Z,6.64
2022-10-19T03:12:03.321Z,6.57
2022-10-19T03:14:29.447Z,6.43
2022-10-19T03:16:55.535Z,6.44
2022-10-19T03:19:21.624Z,6.63
2022-10-19T03:21:47.740Z,6.69
2022-10-19T03:24:13.833Z,6.69
2022-10-19T03:26:39.922Z,6.78
2022-10-19T03:29:06.030Z,6.96
2022-10-19T03:31:32.118Z,6.89
2022-10-19T03:33:58.220Z,7.00
2022-10-19T03:36:24.332Z,6.97
2022-10-19T03:38:50.415Z,7.00
2022-10-19T03:41:16.518Z,6.98
2022-10-19T03:43:42.620Z,7.03
2022-10-19T03:46:08.738Z,7.04
2022-10-19T03:48:34.842Z,7.31
2022-10-19T03:51:01.306Z,7.38
2022-10-19T03:53:27.399Z,7.43
2022-10-19T03:55:53.486Z,7.29
2022-10-19T03:58:19.598Z,7.37
2022-10-19T04:00:45.789Z,7.43
2022-10-19T04:03:11.900Z,7.38
2022-10-19T04:05:37.997Z,7.46
2022-10-19T04:08:04.093Z,7.38
2022-10-19T04:10:30.183Z,7.34
2022-10-19T04:12:56.297Z,7.28
2022-10-19T04:15:22.398Z,7.18
2022-10-19T04:17:48.736Z,7.21
2022-10-19T04:22:53.424Z,7.21
2022-10-19T04:25:19.534Z,7.29
2022-10-19T04:27:45.632Z,7.28
2022-10-19T04:30:11.720Z,7.45
2022-10-19T04:32:37.840Z,7.52
2022-10-19T04:35:03.924Z,7.55
2022-10-19T04:37:30.024Z,7.31
2022-10-19T04:39:56.126Z,7.19
2022-10-19T04:42:22.225Z,7.25
2022-10-19T04:44:48.320Z,7.42
2022-10-19T04:47:14.461Z,7.39
2022-10-19T04:49:40.591Z,7.49
2022-10-19T04:52:06.688Z,7.32
2022-10-19T04:54:33.359Z,7.33
2022-10-19T04:56:59.456Z,7.23
2022-10-19T04:59:25.561Z,7.09
2022-10-19T05:01:51.972Z,7.15
2022-10-19T05:04:18.056Z,7.22
2022-10-19T05:06:44.149Z,7.21
2022-10-19T05:09:10.276Z,7.27
2022-10-19T05:11:36.393Z,7.23
2022-10-19T05:14:02.486Z,7.15
2022-10-19T05:16:28.581Z,7.22
2022-10-19T05:18:54.675Z,7.19
2022-10-19T05:21:20.773Z,7.29
2022-10-19T05:23:46.888Z,7.21
2022-10-19T05:26:12.979Z,7.33
2022-10-19T05:28:39.214Z,7.23
2022-10-19T05:31:05.354Z,6.95
2022-10-19T05:33:31.444Z,7.08
2022-10-19T05:35:57.675Z,6.96
2022-10-19T05:38:23.829Z,6.91
2022-10-19T05:40:52.963Z,7.10
2022-10-19T05:43:19.850Z,7.18
2022-10-19T05:45:45.962Z,7.26
2022-10-19T05:48:12.071Z,7.19
2022-10-19T05:50:38.178Z,7.14
2022-10-19T05:53:04.308Z,7.11
2022-10-19T05:55:30.408Z,7.10
2022-10-19T05:57:56.537Z,7.19
2022-10-19T06:00:22.653Z,7.25
2022-10-19T06:02:48.750Z,7.29
2022-10-19T06:05:14.851Z,7.20
2022-10-19T06:07:40.969Z,7.04
2022-10-19T06:10:07.059Z,7.00
2022-10-19T06:12:33.161Z,7.16
2022-10-19T06:14:59.282Z,7.08
2022-10-19T06:17:25.393Z,7.14
2022-10-19T06:19:51.494Z,7.18
2022-10-19T06:22:17.607Z,6.85
2022-10-19T06:24:43.695Z,6.68
2022-10-19T06:27:09.856Z,6.85
2022-10-19T06:29:36.002Z,6.94
2022-10-19T06:32:02.100Z,6.91
2022-10-19T06:34:28.285Z,6.98
2022-10-19T06:36:54.514Z,6.89
2022-10-19T06:39:20.639Z,6.97
2022-10-19T06:41:46.733Z,6.82
2022-10-19T06:44:12.840Z,6.86
2022-10-19T06:46:38.939Z,6.80
2022-10-19T06:49:05.039Z,6.96
2022-10-19T06:51:31.163Z,7.03
2022-10-19T06:53:57.635Z,7.11
2022-10-19T06:56:23.853Z,7.10
2022-10-19T06:58:50.290Z,7.10
2022-10-19T07:01:16.492Z,7.03
2022-10-19T07:03:42.603Z,7.17
2022-10-19T07:06:08.789Z,7.22
2022-10-19T07:08:34.889Z,7.27
2022-10-19T07:11:00.986Z,7.23
2022-10-19T07:13:27.102Z,7.20
2022-10-19T07:15:53.220Z,7.30
2022-10-19T07:18:19.330Z,7.34
2022-10-19T07:20:45.450Z,7.40
2022-10-19T07:23:11.562Z,7.37
2022-10-19T07:25:37.651Z,7.39
2022-10-19T07:28:03.758Z,7.47
2022-10-19T07:30:29.878Z,7.52
2022-10-19T07:32:55.974Z,7.47
2022-10-19T07:35:22.103Z,7.56
2022-10-19T07:37:48.190Z,7.66
2022-10-19T07:40:14.295Z,7.69
2022-10-19T07:42:40.436Z,7.81
2022-10-19T07:45:06.550Z,7.90
2022-10-19T07:47:32.934Z,8.00
2022-10-19T07:49:59.309Z,8.02
2022-10-19T07:52:25.450Z,8.08
2022-10-19T07:54:51.574Z,8.06
2022-10-19T07:57:17.689Z,8.17
2022-10-19T07:59:43.790Z,8.32
2022-10-19T08:02:09.929Z,8.42
2022-10-19T08:07:23.201Z,8.49
2022-10-19T08:09:53.826Z,8.54
2022-10-19T08:12:20.483Z,8.76
2022-10-19T08:14:46.594Z,8.91
2022-10-19T08:17:12.717Z,8.91
2022-10-19T08:19:38.843Z,9.01
2022-10-19T08:22:04.935Z,9.05
2022-10-19T08:24:31.046Z,9.11
2022-10-19T08:26:57.143Z,9.19
2022-10-19T08:29:24.593Z,9.21
2022-10-19T08:31:52.725Z,9.33
2022-10-19T08:34:18.812Z,9.36
2022-10-19T08:36:44.918Z,9.48
2022-10-19T08:39:11.044Z,9.54
2022-10-19T08:41:37.183Z,9.63
2022-10-19T08:44:06.243Z,9.73
2022-10-19T08:46:35.297Z,9.77
2022-10-19T08:49:01.389Z,9.86
2022-10-19T08:51:27.547Z,9.92
2022-10-19T08:53:53.729Z,10.02
2022-10-19T08:56:39.038Z,10.11
2022-10-19T08:59:05.937Z,10.21
2022-10-19T09:01:33.926Z,10.29
2022-10-19T09:04:02.978Z,10.31
2022-10-19T09:06:29.090Z,10.44
2022-10-19T09:08:55.224Z,10.51
2022-10-19T09:11:21.345Z,10.60
2022-10-19T09:14:05.991Z,10.65
2022-10-19T09:16:32.435Z,10.63
2022-10-19T09:18:58.560Z,10.69
2022-10-19T09:21:31.008Z,10.74
2022-10-19T09:24:04.052Z,10.78
2022-10-19T09:26:30.147Z,10.86
2022-10-19T09:28:56.259Z,10.91
2022-10-19T09:31:22.382Z,10.97
2022-10-19T09:33:48.480Z,10.99
2022-10-19T09:36:22.548Z,11.00
2022-10-19T09:38:53.754Z,11.06
2022-10-19T09:41:19.852Z,11.07
2022-10-19T09:43:45.977Z,11.14
2022-10-19T09:46:19.795Z,11.25
2022-10-19T09:48:46.301Z,11.28
2022-10-19T09:51:12.409Z,11.26
2022-10-19T09:53:38.525Z,11.34
2022-10-19T09:56:04.793Z,11.43
2022-10-19T09:58:33.107Z,11.43
2022-10-19T10:00:59.670Z,11.50
2022-10-19T10:03:25.774Z,11.57
2022-10-19T10:05:51.869Z,11.64
2022-10-19T10:08:17.978Z,11.62
2022-10-19T10:10:44.065Z,11.65
2022-10-19T10:13:10.208Z,11.75
2022-10-19T10:15:36.349Z,11.81
2022-10-19T10:18:02.438Z,11.85
2022-10-19T10:20:28.544Z,11.88
2022-10-19T10:22:54.656Z,12.00
2022-10-19T10:25:20.852Z,12.02
2022-10-19T10:27:46.973Z,12.10
2022-10-19T10:30:13.073Z,12.11
2022-10-19T10:32:39.177Z,12.12
2022-10-19T10:35:05.263Z,12.16
2022-10-19T10:37:31.661Z,12.24
2022-10-19T10:40:00.521Z,12.29
2022-10-19T10:42:29.869Z,12.38
2022-10-19T10:44:55.972Z,12.45
2022-10-19T10:47:22.070Z,12.54
2022-10-19T10:49:48.157Z,12.56
2022-10-19T10:52:14.294Z,12.55
2022-10-19T10:54:40.398Z,12.63
2022-10-19T10:57:06.920Z,12.69
2022-10-19T10:59:33.210Z,12.66
2022-10-19T11:01:59.376Z,12.67
2022-10-19T11:04:25.516Z,12.73
2022-10-19T11:06:51.693Z,12.78
2022-10-19T11:09:17.775Z,12.86
2022-10-19T11:11:43.872Z,12.90
2022-10-19T11:14:10.032Z,12.97
2022-10-19T11:16:36.128Z,12.92
2022-10-19T11:19:02.270Z,13.08
2022-10-19T11:21:28.689Z,13.20
2022-10-19T11:23:54.794Z,13.26
2022-10-19T11:26:20.881Z,13.25
2022-10-19T11:28:47.002Z,13.33
2022-10-19T11:31:13.105Z,13.36
2022-10-19T11:33:39.240Z,13.36
2022-10-19T11:36:05.379Z,13.32
2022-10-19T11:38:31.549Z,13.35
2022-10-19T11:41:16.974Z,13.42
2022-10-19T11:43:43.766Z,13.47
2022-10-19T11:46:09.871Z,13.46
2022-10-19T11:48:37.695Z,13.52
2022-10-19T11:51:20.587Z,13.62
2022-10-19T11:53:47.625Z,13.71
2022-10-19T11:56:13.732Z,13.76
2022-10-19T11:58:39.840Z,13.76
2022-10-19T12:01:05.939Z,13.77
2022-10-19T12:03:32.050Z,13.72
2022-10-19T12:05:58.128Z,13.84
2022-10-19T12:08:24.261Z,13.89
2022-10-19T12:10:50.534Z,13.97
2022-10-19T12:13:16.654Z,13.95
2022-10-19T12:15:42.743Z,13.98
2022-10-19T12:18:08.838Z,13.99
2022-10-19T12:20:34.937Z,13.99
2022-10-19T12:23:01.039Z,14.06
2022-10-19T12:25:27.143Z,14.18
2022-10-19T12:27:53.237Z,14.10
2022-10-19T12:30:19.328Z,14.18
2022-10-19T12:32:45.441Z,14.27
2022-10-19T12:35:11.572Z,14.28
2022-10-19T12:37:37.937Z,14.26
2022-10-19T12:40:04.085Z,14.34
2022-10-19T12:42:30.168Z,14.37
2022-10-19T12:44:58.630Z,14.45
2022-10-19T12:47:25.075Z,14.47
2022-10-19T12:49:51.208Z,14.56
2022-10-19T12:52:17.301Z,14.66
2022-10-19T12:54:43.413Z,14.68
2022-10-19T12:57:09.501Z,14.69
2022-10-19T12:59:35.669Z,14.57
2022-10-19T13:02:01.785Z,14.69
2022-10-19T13:04:27.922Z,14.75
2022-10-19T13:06:54.017Z,14.76
2022-10-19T13:09:20.173Z,14.81
2022-10-19T13:11:46.276Z,14.81
2022-10-19T13:14:12.379Z,14.80
2022-10-19T13:16:38.489Z,14.80
2022-10-19T13:19:04.730Z,14.82
2022-10-19T13:21:30.870Z,14.86
2022-10-19T13:23:56.979Z,14.93
2022-10-19T13:26:23.095Z,14.92
2022-10-19T13:28:49.210Z,14.95
2022-10-19T13:31:15.828Z,14.95
2022-10-19T13:33:41.932Z,14.96
2022-10-19T13:36:08.058Z,15.00
2022-10-19T13:38:34.180Z,15.05
2022-10-19T13:41:00.281Z,15.12
2022-10-19T13:43:26.420Z,15.15
2022-10-19T13:45:52.569Z,15.17
2022-10-19T13:48:18.663Z,15.19
2022-10-19T13:50:44.762Z,15.16
2022-10-19T13:53:10.897Z,15.18
2022-10-19T13:55:36.988Z,15.17
2022-10-19T13:58:03.073Z,15.16
2022-10-19T14:00:29.250Z,15.20
2022-10-19T14:02:55.346Z,15.19
2022-10-19T14:05:21.440Z,15.16
2022-10-19T14:07:47.545Z,15.20
2022-10-19T14:10:13.642Z,15.24
2022-10-19T14:12:39.736Z,15.23
2022-10-19T14:15:05.846Z,15.30
2022-10-19T14:17:33.886Z,15.24
2022-10-19T14:20:00.556Z,15.30
2022-10-19T14:22:26.672Z,15.29
2022-10-19T14:24:52.790Z,15.31
2022-10-19T14:27:18.889Z,15.33
2022-10-19T14:29:45.007Z,15.32
2022-10-19T14:32:11.216Z,15.38
2022-10-19T14:34:37.316Z,15.32
2022-10-19T14:37:03.455Z,15.32
2022-10-19T14:39:29.571Z,15.30
2022-10-19T14:41:55.680Z,15.38
2022-10-19T14:44:21.807Z,15.37
2022-10-19T14:46:47.898Z,15.40
2022-10-19T14:49:13.975Z,15.46
2022-10-19T14:51:40.081Z,15.46
2022-10-19T14:54:06.189Z,15.48
2022-10-19T14:56:32.293Z,15.48
2022-10-19T14:58:58.411Z,15.41
2022-10-19T15:01:24.516Z,15.47
2022-10-19T15:03:50.668Z,15.40
2022-10-19T15:06:16.772Z,15.43
2022-10-19T15:08:42.958Z,15.50
2022-10-19T15:11:09.162Z,15.43
2022-10-19T15:13:35.264Z,15.38
2022-10-19T15:16:01.388Z,15.28
2022-10-19T15:21:13.583Z,15.26
2022-10-19T15:23:39.678Z,15.21
2022-10-19T15:26:09.683Z,15.14
2022-10-19T15:28:42.523Z,14.99
2022-10-19T15:31:08.609Z,14.99
2022-10-19T15:33:34.742Z,15.11
2022-10-19T15:38:27.935Z,15.26
2022-10-19T15:40:54.098Z,15.39
2022-10-19T15:43:20.198Z,15.49
2022-10-19T15:45:46.289Z,15.65
2022-10-19T15:48:12.372Z,15.75
2022-10-19T15:50:38.526Z,15.74
2022-10-19T15:53:04.630Z,15.54
2022-10-19T15:55:30.756Z,15.29
2022-10-19T15:57:56.878Z,15.14
2022-10-19T16:00:22.980Z,14.83
2022-10-19T16:02:49.103Z,14.53
2022-10-19T16:05:15.210Z,14.41
2022-10-19T16:07:41.292Z,14.30
2022-10-19T16:10:07.421Z,14.19
2022-10-19T16:12:33.540Z,14.03
2022-10-19T16:14:59.689Z,13.93
2022-10-19T16:17:25.786Z,13.86
2022-10-19T16:19:52.311Z,13.78
2022-10-19T16:22:18.403Z,13.74
2022-10-19T16:24:44.516Z,13.70
2022-10-19T16:27:10.640Z,13.55
2022-10-19T16:29:36.720Z,13.50
2022-10-19T16:32:02.825Z,13.36
2022-10-19T16:34:29.021Z,13.11
2022-10-19T16:36:55.159Z,13.07
2022-10-19T16:39:21.261Z,13.07
2022-10-19T16:41:47.897Z,13.02
2022-10-19T16:44:13.983Z,12.92
2022-10-19T16:46:40.083Z,12.87
2022-10-19T16:49:06.243Z,12.71
2022-10-19T16:51:32.584Z,12.67
2022-10-19T16:53:58.661Z,12.56
2022-10-19T16:56:24.768Z,12.45
2022-10-19T16:58:50.866Z,12.25
2022-10-19T17:01:17.003Z,12.23
2022-10-19T17:03:43.164Z,12.22
2022-10-19T17:06:09.291Z,12.08
2022-10-19T17:08:37.230Z,11.98
2022-10-19T17:11:10.486Z,12.01
2022-10-19T17:13:36.578Z,11.93
2022-10-19T17:16:02.680Z,11.93
2022-10-19T17:18:28.793Z,11.83
2022-10-19T17:20:55.627Z,11.81
2022-10-19T17:23:21.816Z,11.70
2022-10-19T17:25:47.927Z,11.70
2022-10-19T17:28:14.022Z,11.68
2022-10-19T17:30:40.119Z,11.62
2022-10-19T17:33:06.255Z,11.53
2022-10-19T17:35:32.358Z,11.47
2022-10-19T17:37:58.450Z,11.32
2022-10-19T17:40:24.603Z,11.25
2022-10-19T17:42:50.686Z,11.34
2022-10-19T17:45:16.801Z,11.26
2022-10-19T17:47:42.929Z,11.20
2022-10-19T17:50:09.034Z,11.13
2022-10-19T17:52:35.154Z,11.14
2022-10-19T17:55:11.574Z,11.10
2022-10-19T17:57:38.493Z,11.02
2022-10-19T18:00:04.599Z,11.09
2022-10-19T18:02:30.800Z,11.08
2022-10-19T18:04:56.937Z,11.00
2022-10-19T18:07:23.050Z,11.00
2022-10-19T18:09:49.140Z,10.94
2022-10-19T18:12:15.243Z,10.88
2022-10-19T18:14:41.360Z,10.88
2022-10-19T18:17:07.466Z,10.75
2022-10-19T18:19:33.569Z,10.72
2022-10-19T18:22:01.132Z,10.68
2022-10-19T18:24:27.272Z,10.63
2022-10-19T18:26:53.417Z,10.59
2022-10-19T18:29:19.543Z,10.63
2022-10-19T18:31:45.632Z,10.56
2022-10-19T18:34:11.734Z,10.51
2022-10-19T18:36:37.847Z,10.59
2022-10-19T18:39:03.932Z,10.56
2022-10-19T18:41:30.033Z,10.57
2022-10-19T18:43:56.154Z,10.51
2022-10-19T18:46:22.246Z,10.56
2022-10-19T18:48:48.342Z,10.51
2022-10-19T18:51:14.900Z,10.50
2022-10-19T18:53:40.986Z,10.48
2022-10-19T18:56:07.091Z,10.44
2022-10-19T18:58:33.197Z,10.30
2022-10-19T19:00:59.325Z,10.30
2022-10-19T19:03:25.417Z,10.21
2022-10-19T19:05:51.546Z,10.28
2022-10-19T19:08:17.672Z,10.29
2022-10-19T19:10:43.763Z,10.16
2022-10-19T19:13:09.874Z,10.15
2022-10-19T19:15:35.972Z,10.08
2022-10-19T19:18:02.081Z,10.07
2022-10-19T19:20:28.170Z,10.09
2022-10-19T19:22:54.273Z,10.08
2022-10-19T19:25:20.368Z,10.02
2022-10-19T19:27:46.480Z,9.94
2022-10-19T19:30:12.573Z,9.89
2022-10-19T19:32:38.682Z,9.82
2022-10-19T19:35:04.832Z,9.75
2022-10-19T19:37:30.936Z,9.71
2022-10-19T19:39:57.043Z,9.76
2022-10-19T19:42:27.666Z,9.71
2022-10-19T19:44:54.002Z,9.58
2022-10-19T19:47:20.113Z,9.54
2022-10-19T19:49:46.245Z,9.47
2022-10-19T19:52:12.377Z,9.50
2022-10-19T19:54:38.470Z,9.44
2022-10-19T19:57:04.576Z,9.49
2022-10-19T19:59:30.680Z,9.43
2022-10-19T20:01:56.850Z,9.38
2022-10-19T20:04:22.970Z,9.35
2022-10-19T20:06:49.082Z,9.39
2022-10-19T20:09:15.189Z,9.39
2022-10-19T20:11:42.701Z,9.38
2022-10-19T20:14:09.112Z,9.36
2022-10-19T20:16:35.210Z,9.18
2022-10-19T20:19:01.335Z,9.21
2022-10-19T20:21:27.429Z,9.31
2022-10-19T20:23:53.527Z,9.31
2022-10-19T20:26:19.648Z,9.30
2022-10-19T20:28:45.757Z,9.25
2022-10-19T20:31:11.851Z,9.24
2022-10-19T20:33:37.959Z,9.40
2022-10-19T20:36:04.081Z,9.48
2022-10-19T20:38:30.178Z,9.50
2022-10-19T20:40:56.287Z,9.33
2022-10-19T20:43:22.372Z,9.42
2022-10-19T20:45:48.452Z,9.37
2022-10-19T20:48:14.590Z,9.30
2022-10-19T20:50:40.696Z,9.41
2022-10-19T20:53:06.790Z,9.46
2022-10-19T20:55:33.378Z,9.60
2022-10-19T20:57:59.457Z,9.68
2022-10-19T21:00:25.531Z,9.67
2022-10-19T21:02:51.649Z,9.60
2022-10-19T21:05:17.752Z,9.63
2022-10-19T21:07:43.843Z,9.72
2022-10-19T21:10:09.949Z,9.79
2022-10-19T21:12:36.400Z,9.72
2022-10-19T21:15:02.788Z,9.71
2022-10-19T21:17:28.901Z,9.85
2022-10-19T21:19:57.275Z,9.79
2022-10-19T21:22:23.588Z,9.78
2022-10-19T21:24:50.322Z,9.87
2022-10-19T21:27:16.409Z,9.93
2022-10-19T21:29:42.487Z,9.92
2022-10-19T21:32:08.610Z,9.94
2022-10-19T21:34:34.700Z,9.87
2022-10-19T21:37:00.784Z,9.96
2022-10-19T21:39:26.898Z,9.94
2022-10-19T21:41:52.989Z,9.90
2022-10-19T21:44:19.067Z,9.86
2022-10-19T21:46:45.186Z,9.89
2022-10-19T21:49:11.286Z,10.05
2022-10-19T21:51:37.365Z,9.99
2022-10-19T21:54:03.553Z,10.01
2022-10-19T21:56:29.724Z,10.10
2022-10-19T21:58:55.823Z,10.05
2022-10-19T22:01:22.086Z,10.11
2022-10-19T22:03:48.228Z,10.08
2022-10-19T22:06:14.337Z,10.06
2022-10-19T22:08:40.695Z,10.05
2022-10-19T22:11:06.797Z,10.11
2022-10-19T22:13:32.901Z,10.20
2022-10-19T22:15:59.022Z,10.20
2022-10-19T22:18:25.103Z,10.20
2022-10-19T22:20:51.194Z,10.31
2022-10-19T22:23:17.314Z,10.39
2022-10-19T22:25:43.422Z,10.40
2022-10-19T22:28:09.506Z,10.37
2022-10-19T22:30:35.617Z,10.35
2022-10-19T22:33:01.708Z,10.21
2022-10-19T22:35:27.803Z,10.45
2022-10-19T22:37:53.896Z,10.41
2022-10-19T22:40:19.988Z,10.44
2022-10-19T22:42:46.078Z,10.51
2022-10-19T22:45:12.210Z,10.45
2022-10-19T22:47:38.320Z,10.48
2022-10-19T22:50:04.404Z,10.44
2022-10-19T22:52:30.509Z,10.49
2022-10-19T22:54:56.609Z,10.49
2022-10-19T22:57:22.693Z,10.48
2022-10-19T22:59:48.797Z,10.51
2022-10-19T23:02:14.885Z,10.53
2022-10-19T23:04:40.970Z,10.57
2022-10-19T23:07:07.173Z,10.57
2022-10-19T23:09:33.332Z,10.59
2022-10-19T23:11:59.429Z,10.59
2022-10-19T23:14:25.542Z,10.56
2022-10-19T23:16:51.638Z,10.56
2022-10-19T23:19:17.731Z,10.57
2022-10-19T23:21:43.842Z,10.57
2022-10-19T23:24:09.926Z,10.60
2022-10-19T23:26:36.015Z,10.64
2022-10-19T23:29:02.127Z,10.59
2022-10-19T23:31:28.210Z,10.64
2022-10-19T23:33:54.298Z,10.64
2022-10-19T23:36:20.414Z,10.63
2022-10-19T23:38:46.501Z,10.56
2022-10-19T23:41:12.597Z,10.60
2022-10-19T23:43:38.707Z,10.61
2022-10-19T23:46:04.808Z,10.60
2022-10-19T23:48:30.901Z,10.64
2022-10-19T23:50:56.999Z,10.64
2022-10-19T23:53:23.109Z,10.63
2022-10-19T23:55:49.212Z,10.68
2022-10-19T23:58:15.336Z,10.63
